createdAt,value
2022-11-09T00:01:34.562Z,97.50
2022-11-09T00:04:02.169Z,97.50
2022-11-09T00:06:29.460Z,97.30
2022-11-09T00:08:56.418Z,97.40
2022-11-09T00:11:23.473Z,97.50
2022-11-09T00:13:50.290Z,97.50
2022-11-09T00:16:18.486Z,97.70
2022-11-09T00:18:48.486Z,97.40
2022-11-09T00:21:16.437Z,97.20
2022-11-09T00:23:43.657Z,97.30
2022-11-09T00:26:11.207Z,97.40
2022-11-09T00:28:38.288Z,97.30
2022-11-09T00:31:10.252Z,97.60
2022-11-09T00:33:36.953Z,97.70
2022-11-09T00:36:07.685Z,97.10
2022-11-09T00:38:35.407Z,97.20
2022-11-09T00:41:05.444Z,97.20
2022-11-09T00:43:32.205Z,97.20
2022-11-09T00:45:59.206Z,97.60
2022-11-09T00:48:26.313Z,97.20
2022-11-09T00:50:53.806Z,97.40
2022-11-09T00:53:21.537Z,97.50
2022-11-09T00:55:54.450Z,97.20
2022-11-09T00:58:21.216Z,97.20
2022-11-09T01:00:47.966Z,97.30
2022-11-09T01:03:14.693Z,97.40
2022-11-09T01:05:41.477Z,97.30
2022-11-09T01:08:08.472Z,97.60
2022-11-09T01:10:35.168Z,97.60
2022-11-09T01:13:01.921Z,97.50
2022-11-09T01:15:28.666Z,97.50
2022-11-09T01:17:55.669Z,97.30
2022-11-09T01:20:22.549Z,97.50
2022-11-09T01:22:49.231Z,97.50
2022-11-09T01:25:16.034Z,97.40
2022-11-09T01:27:42.761Z,97.60
2022-11-09T01:30:09.695Z,97.70
2022-11-09T01:32:36.390Z,97.70
2022-11-09T01:35:03.236Z,97.40
2022-11-09T01:37:30.009Z,97.40
2022-11-09T01:39:56.730Z,97.40
2022-11-09T01:42:24.618Z,97.70
2022-11-09T01:45:11.935Z,97.40
2022-11-09T01:47:38.690Z,97.30
2022-11-09T01:50:05.703Z,97.50
2022-11-09T01:52:35.685Z,97.70
2022-11-09T01:55:05.352Z,97.50
2022-11-09T01:57:34.150Z,97.60
2022-11-09T02:00:04.693Z,97.60
2022-11-09T02:02:31.569Z,97.30
2022-11-09T02:05:01.525Z,97.50
2022-11-09T02:07:28.385Z,97.40
2022-11-09T02:09:59.858Z,97.60
2022-11-09T02:12:28.216Z,97.40
2022-11-09T02:14:56.465Z,97.60
2022-11-09T02:17:23.357Z,97.40
2022-11-09T02:19:50.032Z,97.50
2022-11-09T02:22:16.836Z,97.40
2022-11-09T02:24:43.653Z,97.20
2022-11-09T02:27:10.869Z,97.70
2022-11-09T02:29:40.650Z,97.60
2022-11-09T02:32:10.112Z,97.60
2022-11-09T02:34:36.802Z,97.60
2022-11-09T02:37:03.496Z,97.60
2022-11-09T02:39:30.225Z,97.60
2022-11-09T02:42:03.159Z,97.30
2022-11-09T02:44:33.018Z,97.60
2022-11-09T02:46:59.707Z,97.50
2022-11-09T02:49:26.457Z,97.60
2022-11-09T02:51:53.220Z,97.50
2022-11-09T02:54:19.896Z,97.50
2022-11-09T02:56:46.599Z,97.20
2022-11-09T02:59:13.356Z,97.30
2022-11-09T03:01:40.256Z,97.30
2022-11-09T03:04:07.029Z,97.40
2022-11-09T03:06:36.521Z,97.80
2022-11-09T03:09:04.949Z,97.50
2022-11-09T03:11:31.694Z,97.50
2022-11-09T03:13:58.551Z,97.50
2022-11-09T03:16:25.327Z,97.50
2022-11-09T03:18:52.507Z,97.20
2022-11-09T03:21:19.449Z,97.70
2022-11-09T03:23:46.729Z,97.70
2022-11-09T03:26:13.421Z,97.60
2022-11-09T03:28:40.351Z,97.50
2022-11-09T03:31:07.276Z,97.40
2022-11-09T03:33:34.141Z,97.50
2022-11-09T03:36:01.229Z,97.40
2022-11-09T03:38:27.933Z,97.50
2022-11-09T03:40:54.674Z,97.60
2022-11-09T03:43:21.727Z,97.30
2022-11-09T03:45:48.655Z,97.70
2022-11-09T03:48:15.385Z,97.50
2022-11-09T03:50:42.475Z,97.40
2022-11-09T03:53:10.731Z,97.30
2022-11-09T03:55:37.966Z,97.80
2022-11-09T03:58:06.869Z,97.60
2022-11-09T04:00:34.031Z,97.30
2022-11-09T04:03:01.294Z,97.20
2022-11-09T04:05:28.250Z,97.60
2022-11-09T04:07:56.541Z,97.60
2022-11-09T04:10:24.371Z,97.50
2022-11-09T04:12:51.440Z,97.70
2022-11-09T04:15:18.325Z,97.60
2022-11-09T04:17:45.004Z,97.60
2022-11-09T04:20:12.134Z,97.40
2022-11-09T04:22:46.193Z,97.50
2022-11-09T04:25:22.394Z,97.50
2022-11-09T04:27:49.087Z,97.60
2022-11-09T04:30:15.877Z,97.50
2022-11-09T04:32:42.733Z,97.50
2022-11-09T04:35:09.517Z,97.50
2022-11-09T04:37:36.192Z,97.30
2022-11-09T04:40:03.076Z,97.30
2022-11-09T04:42:29.770Z,97.60
2022-11-09T04:44:56.460Z,97.20
2022-11-09T04:47:23.177Z,97.50
2022-11-09T04:49:49.895Z,97.50
2022-11-09T04:52:16.611Z,97.40
2022-11-09T04:54:43.375Z,97.20
2022-11-09T04:57:10.096Z,97.40
2022-11-09T04:59:36.877Z,97.40
2022-11-09T05:02:03.713Z,97.40
2022-11-09T05:04:30.415Z,97.50
2022-11-09T05:06:57.141Z,97.60
2022-11-09T05:09:23.923Z,97.30
2022-11-09T05:11:51.777Z,97.70
2022-11-09T05:14:18.453Z,97.40
2022-11-09T05:16:45.261Z,97.70
2022-11-09T05:19:12.044Z,97.50
2022-11-09T05:21:38.718Z,97.50
2022-11-09T05:24:05.713Z,97.40
2022-11-09T05:26:33.347Z,97.40
2022-11-09T05:29:00.805Z,97.40
2022-11-09T05:31:28.043Z,97.40
2022-11-09T05:33:55.042Z,97.40
2022-11-09T05:36:21.970Z,97.60
2022-11-09T05:38:48.939Z,97.60
2022-11-09T05:41:15.942Z,97.40
2022-11-09T05:43:44.685Z,97.10
2022-11-09T05:46:12.189Z,97.40
2022-11-09T05:48:38.915Z,97.60
2022-11-09T05:51:07.776Z,97.40
2022-11-09T05:53:34.808Z,97.10
2022-11-09T05:56:02.633Z,97.30
2022-11-09T05:58:29.740Z,97.50
2022-11-09T06:00:56.492Z,97.70
2022-11-09T06:03:23.476Z,97.60
2022-11-09T06:05:50.282Z,97.80
2022-11-09T06:08:17.008Z,97.30
2022-11-09T06:10:43.738Z,97.50
2022-11-09T06:13:10.753Z,97.50
2022-11-09T06:15:37.590Z,97.60
2022-11-09T06:18:04.285Z,97.70
2022-11-09T06:20:31.381Z,97.60
2022-11-09T06:23:03.002Z,97.60
2022-11-09T06:25:31.645Z,97.60
2022-11-09T06:27:58.496Z,97.50
2022-11-09T06:30:25.248Z,97.60
2022-11-09T06:32:51.993Z,97.50
2022-11-09T06:35:18.802Z,97.30
2022-11-09T06:37:45.467Z,97.70
2022-11-09T06:40:12.660Z,97.50
2022-11-09T06:42:39.513Z,97.40
2022-11-09T06:45:06.587Z,97.70
2022-11-09T06:47:33.287Z,97.40
2022-11-09T06:50:00.033Z,97.60
2022-11-09T06:52:26.757Z,97.40
2022-11-09T06:54:53.442Z,97.10
2022-11-09T06:57:20.203Z,97.70
2022-11-09T06:59:46.896Z,97.50
2022-11-09T07:02:15.748Z,97.60
2022-11-09T07:04:42.498Z,97.70
2022-11-09T07:07:09.294Z,97.60
2022-11-09T07:09:36.133Z,97.50
2022-11-09T07:12:04.156Z,97.70
2022-11-09T07:14:30.890Z,97.70
2022-11-09T07:16:57.594Z,97.80
2022-11-09T07:19:24.341Z,97.50
2022-11-09T07:21:51.037Z,97.50
2022-11-09T07:24:17.748Z,97.60
2022-11-09T07:26:44.628Z,97.80
2022-11-09T07:29:11.335Z,97.60
2022-11-09T07:31:38.028Z,97.30
2022-11-09T07:34:05.030Z,97.40
2022-11-09T07:36:32.432Z,97.60
2022-11-09T07:38:59.237Z,97.70
2022-11-09T07:41:29.356Z,97.70
2022-11-09T07:43:58.945Z,97.50
2022-11-09T07:46:25.686Z,97.20
2022-11-09T07:48:52.385Z,97.70
2022-11-09T07:51:19.346Z,97.70
2022-11-09T07:53:46.186Z,97.50
2022-11-09T07:56:13.027Z,97.70
2022-11-09T07:58:39.747Z,97.70
2022-11-09T08:01:07.570Z,97.60
2022-11-09T08:03:34.249Z,97.50
2022-11-09T08:06:00.957Z,98.00
2022-11-09T08:08:27.744Z,97.60
2022-11-09T08:10:56.358Z,97.70
2022-11-09T08:13:23.348Z,97.50
2022-11-09T08:15:50.265Z,97.70
2022-11-09T08:18:18.393Z,97.70
2022-11-09T08:20:46.096Z,97.60
2022-11-09T08:23:16.946Z,97.30
2022-11-09T08:25:44.017Z,97.60
2022-11-09T08:28:15.859Z,97.80
2022-11-09T08:30:43.603Z,97.60
2022-11-09T08:33:10.461Z,97.70
2022-11-09T08:35:37.345Z,97.80
2022-11-09T08:38:05.300Z,97.60
2022-11-09T08:40:32.443Z,97.50
2022-11-09T08:43:03.228Z,97.70
2022-11-09T08:45:31.721Z,97.40
2022-11-09T08:47:59.488Z,97.70
2022-11-09T08:50:26.923Z,97.70
2022-11-09T08:52:53.768Z,97.30
2022-11-09T08:55:20.463Z,97.50
2022-11-09T08:57:47.156Z,97.70
2022-11-09T09:00:14.218Z,97.60
2022-11-09T09:02:41.130Z,97.60
2022-11-09T09:05:07.959Z,97.80
2022-11-09T09:07:34.715Z,97.60
2022-11-09T09:10:01.436Z,97.70
2022-11-09T09:12:28.120Z,97.40
2022-11-09T09:14:55.388Z,97.40
2022-11-09T09:17:22.101Z,97.40
2022-11-09T09:19:50.098Z,97.10
2022-11-09T09:22:17.124Z,97.50
2022-11-09T09:24:43.885Z,97.50
2022-11-09T09:27:10.589Z,97.30
2022-11-09T09:29:37.428Z,97.70
2022-11-09T09:32:04.224Z,97.90
2022-11-09T09:34:31.176Z,97.50
2022-11-09T09:36:57.972Z,97.90
2022-11-09T09:39:24.694Z,97.60
2022-11-09T09:41:52.678Z,97.60
2022-11-09T09:44:39.791Z,97.80
2022-11-09T09:47:06.462Z,97.70
2022-11-09T09:49:35.806Z,97.50
2022-11-09T09:52:14.808Z,97.70
2022-11-09T09:54:43.572Z,97.80
2022-11-09T09:57:15.626Z,97.40
2022-11-09T09:59:43.809Z,97.50
2022-11-09T10:02:26.960Z,97.20
2022-11-09T10:04:55.299Z,97.40
2022-11-09T10:07:22.028Z,97.40
2022-11-09T10:10:05.620Z,97.70
2022-11-09T10:12:51.038Z,97.40
2022-11-09T10:15:27.017Z,97.20
2022-11-09T10:17:56.567Z,97.70
2022-11-09T10:20:26.265Z,97.70
2022-11-09T10:23:05.249Z,97.70
2022-11-09T10:28:23.250Z,97.60
2022-11-09T10:30:50.152Z,97.80
2022-11-09T10:33:19.394Z,97.60
2022-11-09T10:36:02.625Z,97.60
2022-11-09T10:38:35.195Z,97.60
2022-11-09T10:41:11.446Z,97.60
2022-11-09T10:43:38.191Z,97.60
2022-11-09T10:46:06.291Z,97.50
2022-11-09T10:48:34.519Z,97.70
2022-11-09T10:51:01.595Z,97.90
2022-11-09T10:53:29.197Z,97.60
2022-11-09T10:56:05.314Z,97.50
2022-11-09T10:58:34.612Z,97.40
2022-11-09T11:01:18.516Z,97.50
2022-11-09T11:03:45.679Z,97.70
2022-11-09T11:06:18.479Z,97.50
2022-11-09T11:08:46.764Z,97.70
2022-11-09T11:11:32.698Z,97.70
2022-11-09T11:14:23.175Z,98.00
2022-11-09T11:16:52.962Z,97.40
2022-11-09T11:19:40.468Z,97.70
2022-11-09T11:22:19.241Z,97.40
2022-11-09T11:24:56.452Z,97.50
2022-11-09T11:27:42.097Z,97.60
2022-11-09T11:30:12.258Z,97.60
2022-11-09T11:32:38.974Z,97.70
2022-11-09T11:35:11.989Z,97.80
2022-11-09T11:38:03.863Z,97.40
2022-11-09T11:40:33.461Z,97.50
2022-11-09T11:43:02.948Z,97.70
2022-11-09T11:45:40.552Z,97.60
2022-11-09T11:48:11.370Z,97.90
2022-11-09T11:50:51.514Z,97.60
2022-11-09T11:53:43.026Z,97.80
2022-11-09T11:56:10.237Z,97.30
2022-11-09T11:58:52.620Z,97.50
2022-11-09T12:01:34.700Z,97.70
2022-11-09T12:04:20.155Z,97.20
2022-11-09T12:06:51.972Z,97.20
2022-11-09T12:09:26.464Z,97.60
2022-11-09T12:12:03.371Z,97.90
2022-11-09T12:14:36.476Z,97.60
2022-11-09T12:17:15.665Z,97.40
2022-11-09T12:19:52.706Z,97.30
2022-11-09T12:22:19.545Z,97.40
2022-11-09T12:24:46.244Z,97.40
2022-11-09T12:27:31.585Z,97.40
2022-11-09T12:29:59.254Z,97.80
2022-11-09T12:32:48.967Z,97.40
2022-11-09T12:35:45.551Z,97.70
2022-11-09T12:38:24.808Z,97.40
2022-11-09T12:41:02.257Z,97.70
2022-11-09T12:43:41.243Z,97.80
2022-11-09T12:46:10.059Z,97.60
2022-11-09T12:48:37.091Z,97.20
2022-11-09T12:51:05.273Z,97.10
2022-11-09T12:53:36.733Z,97.40
2022-11-09T12:56:03.411Z,97.50
2022-11-09T12:58:34.609Z,97.50
2022-11-09T13:01:02.392Z,97.80
2022-11-09T13:03:33.205Z,97.90
2022-11-09T13:06:18.811Z,98.00
2022-11-09T13:09:00.074Z,97.70
2022-11-09T13:11:43.879Z,97.80
2022-11-09T13:14:22.864Z,98.00
2022-11-09T13:16:50.588Z,97.50
2022-11-09T13:19:32.575Z,97.60
2022-11-09T13:21:59.704Z,97.80
2022-11-09T13:24:34.196Z,97.80
2022-11-09T13:27:02.040Z,97.90
2022-11-09T13:29:53.600Z,97.90
2022-11-09T13:32:24.667Z,97.90
2022-11-09T13:34:55.299Z,97.90
2022-11-09T13:37:40.849Z,97.90
2022-11-09T13:40:26.230Z,97.90
2022-11-09T13:42:56.943Z,97.80
2022-11-09T13:45:28.099Z,97.70
2022-11-09T13:47:55.131Z,97.70
2022-11-09T13:50:25.759Z,97.60
2022-11-09T13:52:55.507Z,97.80
2022-11-09T13:55:41.862Z,97.40
2022-11-09T13:58:14.538Z,97.60
2022-11-09T14:00:45.757Z,97.70
2022-11-09T14:03:20.777Z,97.80
2022-11-09T14:05:50.146Z,97.60
2022-11-09T14:08:20.805Z,98.00
2022-11-09T14:11:00.159Z,98.00
2022-11-09T14:13:32.837Z,97.90
2022-11-09T14:16:06.923Z,97.70
2022-11-09T14:18:52.067Z,97.90
2022-11-09T14:21:31.114Z,98.00
2022-11-09T14:24:18.135Z,97.70
2022-11-09T14:27:03.755Z,97.90
2022-11-09T14:29:33.970Z,97.90
2022-11-09T14:32:01.852Z,97.80
2022-11-09T14:34:28.997Z,97.60
2022-11-09T14:36:56.561Z,97.50
2022-11-09T14:39:25.314Z,97.80
2022-11-09T14:41:52.230Z,98.00
2022-11-09T14:44:23.858Z,98.00
2022-11-09T14:46:54.765Z,97.90
2022-11-09T14:49:22.278Z,97.70
2022-11-09T14:51:49.127Z,98.20
2022-11-09T14:54:17.507Z,97.80
2022-11-09T14:56:45.183Z,97.90
2022-11-09T14:59:13.448Z,97.80
2022-11-09T15:01:40.498Z,97.90
2022-11-09T15:04:12.489Z,97.70
2022-11-09T15:06:47.413Z,97.90
2022-11-09T15:09:15.522Z,97.80
2022-11-09T15:11:42.370Z,98.10
2022-11-09T15:14:29.266Z,98.10
2022-11-09T15:17:04.775Z,98.20
2022-11-09T15:19:33.668Z,97.70
2022-11-09T15:22:00.367Z,97.90
2022-11-09T15:24:28.453Z,98.30
2022-11-09T15:26:55.823Z,98.00
2022-11-09T15:29:30.606Z,98.00
2022-11-09T15:31:58.691Z,98.00
2022-11-09T15:34:27.022Z,98.10
2022-11-09T15:36:54.872Z,98.00
2022-11-09T15:39:22.449Z,98.10
2022-11-09T15:41:49.140Z,97.70
2022-11-09T15:44:17.161Z,97.90
2022-11-09T15:46:46.555Z,98.00
2022-11-09T15:49:13.821Z,98.10
2022-11-09T15:51:40.555Z,98.10
2022-11-09T15:54:07.408Z,98.10
2022-11-09T15:56:34.152Z,98.20
2022-11-09T15:59:00.900Z,98.00
2022-11-09T16:01:28.368Z,97.80
2022-11-09T16:03:55.103Z,98.10
2022-11-09T16:06:24.567Z,97.80
2022-11-09T16:08:51.594Z,97.80
2022-11-09T16:11:18.279Z,97.80
2022-11-09T16:13:45.055Z,98.10
2022-11-09T16:16:12.961Z,97.90
2022-11-09T16:18:39.842Z,98.10
2022-11-09T16:21:10.300Z,98.00
2022-11-09T16:23:37.541Z,98.00
2022-11-09T16:26:05.552Z,98.00
2022-11-09T16:28:32.319Z,98.10
2022-11-09T16:30:59.085Z,97.70
2022-11-09T16:33:25.759Z,98.00
2022-11-09T16:35:53.198Z,97.90
2022-11-09T16:38:20.262Z,97.70
2022-11-09T16:40:47.362Z,97.70
2022-11-09T16:43:14.110Z,97.90
2022-11-09T16:45:45.767Z,97.90
2022-11-09T16:48:14.290Z,97.90
2022-11-09T16:50:41.099Z,97.70
2022-11-09T16:53:07.835Z,97.90
2022-11-09T16:55:35.246Z,97.70
2022-11-09T16:58:04.007Z,97.80
2022-11-09T17:00:55.872Z,97.70
2022-11-09T17:03:17.592Z,97.90
2022-11-09T17:05:44.517Z,97.90
2022-11-09T17:08:11.758Z,97.90
2022-11-09T17:10:42.344Z,97.90
2022-11-09T17:13:09.649Z,97.80
2022-11-09T17:15:46.955Z,97.60
2022-11-09T17:18:13.785Z,97.80
2022-11-09T17:20:44.344Z,97.50
2022-11-09T17:23:12.647Z,97.80
2022-11-09T17:25:39.607Z,97.60
2022-11-09T17:28:06.780Z,97.60
2022-11-09T17:30:34.063Z,97.70
2022-11-09T17:33:00.903Z,97.90
2022-11-09T17:35:28.280Z,97.90
2022-11-09T17:37:54.992Z,97.60
2022-11-09T17:40:21.806Z,97.70
2022-11-09T17:42:48.556Z,97.80
2022-11-09T17:45:15.350Z,97.50
2022-11-09T17:47:42.076Z,97.80
2022-11-09T17:50:09.822Z,97.50
2022-11-09T17:52:36.741Z,97.50
2022-11-09T17:55:03.669Z,97.50
2022-11-09T17:57:30.397Z,97.40
2022-11-09T17:59:57.071Z,97.40
2022-11-09T18:02:23.932Z,97.60
2022-11-09T18:04:50.645Z,97.80
2022-11-09T18:07:17.514Z,97.50
2022-11-09T18:09:45.086Z,97.90
2022-11-09T18:12:13.123Z,97.70
2022-11-09T18:14:39.861Z,97.60
2022-11-09T18:17:06.899Z,97.60
2022-11-09T18:19:33.620Z,97.60
2022-11-09T18:22:03.071Z,97.70
2022-11-09T18:24:31.932Z,97.60
2022-11-09T18:26:58.941Z,97.80
2022-11-09T18:29:25.682Z,97.60
2022-11-09T18:31:52.511Z,97.80
2022-11-09T18:34:19.182Z,97.70
2022-11-09T18:36:45.892Z,97.60
2022-11-09T18:39:12.623Z,97.90
2022-11-09T18:41:39.326Z,97.80
2022-11-09T18:44:06.065Z,97.90
2022-11-09T18:46:33.333Z,97.70
2022-11-09T18:49:00.084Z,98.00
2022-11-09T18:51:26.810Z,98.00
2022-11-09T18:53:53.696Z,97.70
2022-11-09T18:56:23.394Z,97.40
2022-11-09T18:58:52.533Z,97.60
2022-11-09T19:01:19.555Z,97.70
2022-11-09T19:03:47.919Z,97.50
2022-11-09T19:06:15.973Z,97.90
2022-11-09T19:09:01.037Z,97.70
2022-11-09T19:11:28.092Z,97.70
2022-11-09T19:13:55.267Z,97.60
2022-11-09T19:16:22.465Z,97.70
2022-11-09T19:18:49.201Z,97.50
2022-11-09T19:21:24.921Z,97.90
2022-11-09T19:23:51.824Z,97.70
2022-11-09T19:26:18.974Z,97.70
2022-11-09T19:28:45.868Z,97.50
2022-11-09T19:31:17.372Z,97.80
2022-11-09T19:33:44.103Z,97.60
2022-11-09T19:36:41.219Z,97.70
2022-11-09T19:38:58.236Z,98.00
2022-11-09T19:41:25.619Z,97.70
2022-11-09T19:43:54.622Z,97.80
2022-11-09T19:46:22.206Z,97.80
2022-11-09T19:48:49.121Z,97.60
2022-11-09T19:51:16.440Z,97.70
2022-11-09T19:53:48.378Z,97.60
2022-11-09T19:56:18.376Z,97.90
2022-11-09T19:58:49.429Z,97.80
2022-11-09T20:01:16.230Z,97.80
2022-11-09T20:03:43.196Z,97.70
2022-11-09T20:06:09.900Z,97.90
2022-11-09T20:08:39.554Z,97.80
2022-11-09T20:11:07.804Z,97.80
2022-11-09T20:13:34.977Z,97.60
2022-11-09T20:16:02.848Z,97.60
2022-11-09T20:18:29.591Z,97.90
2022-11-09T20:20:56.401Z,98.00
2022-11-09T20:23:23.082Z,97.80
2022-11-09T20:25:49.927Z,98.00
2022-11-09T20:28:16.694Z,97.80
2022-11-09T20:30:43.389Z,97.80
2022-11-09T20:33:10.178Z,97.70
2022-11-09T20:35:37.083Z,97.80
2022-11-09T20:38:03.864Z,97.70
2022-11-09T20:40:30.654Z,97.80
2022-11-09T20:42:58.028Z,97.80
2022-11-09T20:45:24.752Z,97.80
2022-11-09T20:48:10.202Z,97.60
2022-11-09T20:50:38.333Z,97.80
2022-11-09T20:53:05.054Z,97.70
2022-11-09T20:55:31.773Z,97.70
2022-11-09T20:57:58.499Z,97.70
2022-11-09T21:00:26.086Z,97.60
2022-11-09T21:02:53.305Z,97.70
2022-11-09T21:05:20.414Z,97.70
2022-11-09T21:07:47.216Z,97.70
2022-11-09T21:10:13.926Z,97.70
2022-11-09T21:12:40.620Z,97.90
2022-11-09T21:15:07.640Z,97.80
2022-11-09T21:17:34.407Z,97.60
2022-11-09T21:20:01.117Z,97.80
2022-11-09T21:22:47.893Z,97.70
2022-11-09T21:25:33.021Z,97.70
2022-11-09T21:28:18.414Z,97.90
2022-11-09T21:30:45.223Z,97.80
2022-11-09T21:33:11.971Z,97.80
2022-11-09T21:35:38.831Z,97.90
2022-11-09T21:38:05.553Z,97.80
2022-11-09T21:40:32.276Z,98.00
2022-11-09T21:42:59.071Z,97.70
2022-11-09T21:45:25.815Z,97.80
2022-11-09T21:47:53.952Z,97.70
2022-11-09T21:50:20.695Z,98.00
2022-11-09T21:52:47.402Z,97.90
2022-11-09T21:55:14.119Z,98.00
2022-11-09T21:57:40.841Z,98.10
2022-11-09T22:00:07.978Z,97.80
2022-11-09T22:02:34.666Z,97.80
2022-11-09T22:05:01.503Z,97.90
2022-11-09T22:07:28.197Z,97.90
2022-11-09T22:10:11.327Z,97.90
2022-11-09T22:12:56.762Z,98.00
2022-11-09T22:15:41.895Z,98.00
2022-11-09T22:18:28.622Z,97.80
2022-11-09T22:20:56.257Z,98.00
2022-11-09T22:23:23.317Z,97.90
2022-11-09T22:25:50.322Z,97.80
2022-11-09T22:28:17.028Z,97.80
2022-11-09T22:30:43.723Z,97.70
2022-11-09T22:33:10.499Z,98.00
2022-11-09T22:35:37.232Z,97.90
2022-11-09T22:38:03.919Z,97.90
2022-11-09T22:40:30.638Z,98.00
2022-11-09T22:42:57.374Z,98.10
2022-11-09T22:45:24.080Z,98.00
2022-11-09T22:47:50.859Z,98.10
2022-11-09T22:50:17.565Z,98.00
2022-11-09T22:52:44.383Z,97.90
2022-11-09T22:55:11.167Z,97.90
2022-11-09T22:57:37.961Z,97.80
2022-11-09T23:00:04.934Z,98.00
2022-11-09T23:02:31.683Z,97.70
2022-11-09T23:04:58.366Z,98.00
2022-11-09T23:07:25.067Z,98.00
2022-11-09T23:09:51.896Z,98.00
2022-11-09T23:12:18.607Z,97.90
2022-11-09T23:15:03.706Z,98.00
2022-11-09T23:17:52.960Z,98.00
2022-11-09T23:20:20.536Z,98.10
2022-11-09T23:22:47.765Z,97.80
2022-11-09T23:25:32.828Z,98.00
2022-11-09T23:27:59.683Z,97.80
2022-11-09T23:30:26.361Z,97.70
2022-11-09T23:32:53.060Z,98.10
2022-11-09T23:35:20.341Z,97.80
2022-11-09T23:37:47.039Z,98.00
2022-11-09T23:40:13.921Z,98.00
2022-11-09T23:42:40.609Z,97.90
2022-11-09T23:45:07.655Z,98.10
2022-11-09T23:47:34.426Z,98.10
2022-11-09T23:50:01.130Z,97.80
2022-11-09T23:52:27.818Z,97.70
2022-11-09T23:54:54.693Z,98.10
2022-11-09T23:57:21.405Z,97.80
2022-11-09T23:59:48.115Z,98.00
